Urbana, Illinois
Current Conditions -  °F | °C
As of 9:53 PM on Wednesday 28 Jan 2015 (Local Time) from KCMI Reporting Station
Few Clouds Few Clouds  
Wind Chill: -4°   Ceiling: Unl
Heat Index:   Visibility: 10mi
Dew Point: -3°   Wind: 16mph
Humidity: 70%   Direction: 170°S
Pressure: 29.94"   Gusts: NA
Location:  40.12°N, 88.2°W
Report Text: KCMI 290353Z 17014KT 10SM FEW110 02/M03 A2994 RMK AO2 SLP145 T00171033
Loading
Personal Weather Stations






























Interactive Weather Map New forecast layout! Learn more

10-Day Weather Forecast

Advertisements
Track Severe Weather on mobile